<?xml version="1.0" encoding="UTF-8" standalone="no" ?>
<gpx xmlns="http://www.topografix.com/GPX/1/1" xmlns:xsi="http://www.w3.org/2001/XMLSchema-instance" xsi:schemaLocation="http://www.topografix.com/GPX/1/1 http://www.topografix.com/GPX/1/1/gpx.xsd" version="1.1" creator="VisuGPX - https://www.visugpx.com">
  <metadata>
    <name>Octobre Rose 8km sur TraceDeTrail.fr</name>
    <desc><![CDATA[Randonner entre ville et campagne]]></desc>
  </metadata>
  <trk>
    <name><![CDATA[Octobre Rose 8km sur TraceDeTrail.fr]]></name>
    <extensions>
      <line xmlns="http://www.topografix.com/GPX/gpx_style/0/2">
        <color>0000FF</color>
        <width>4</width>
      </line>
    </extensions>
    <trkseg>
      <trkpt lat="49.38715" lon="2.39897">
        <ele>56</ele>
        <time>2000-01-01T00:58:41.000Z</time>
      </trkpt>
      <trkpt lat="49.38715" lon="2.39945">
        <ele>56</ele>
        <time>2000-01-01T00:58:51.000Z</time>
      </trkpt>
      <trkpt lat="49.38715" lon="2.39962">
        <ele>58.3</ele>
        <time>2000-01-01T00:59:01.000Z</time>
      </trkpt>
      <trkpt lat="49.387" lon="2.39962">
        <ele>56</ele>
        <time>2000-01-01T00:59:11.000Z</time>
      </trkpt>
      <trkpt lat="49.38698" lon="2.39982">
        <ele>58.5</ele>
        <time>2000-01-01T00:59:21.000Z</time>
      </trkpt>
      <trkpt lat="49.38698" lon="2.39991">
        <ele>57</ele>
        <time>2000-01-01T00:59:31.000Z</time>
      </trkpt>
      <trkpt lat="49.38704" lon="2.40002">
        <ele>57.7</ele>
        <time>2000-01-01T00:59:41.000Z</time>
      </trkpt>
      <trkpt lat="49.38625" lon="2.40104">
        <ele>55</ele>
        <time>2000-01-01T00:59:51.000Z</time>
      </trkpt>
      <trkpt lat="49.38596" lon="2.40134">
        <ele>53</ele>
        <time>2000-01-01T01:00:01.000Z</time>
      </trkpt>
      <trkpt lat="49.38589" lon="2.40103">
        <ele>52</ele>
        <time>2000-01-01T01:00:11.000Z</time>
      </trkpt>
      <trkpt lat="49.38559" lon="2.40102">
        <ele>54</ele>
        <time>2000-01-01T01:00:21.000Z</time>
      </trkpt>
      <trkpt lat="49.38529" lon="2.40101">
        <ele>57</ele>
        <time>2000-01-01T01:00:31.000Z</time>
      </trkpt>
      <trkpt lat="49.38492" lon="2.40099">
        <ele>60</ele>
        <time>2000-01-01T01:00:41.000Z</time>
      </trkpt>
      <trkpt lat="49.38455" lon="2.40097">
        <ele>60</ele>
        <time>2000-01-01T01:00:51.000Z</time>
      </trkpt>
      <trkpt lat="49.38446" lon="2.40084">
        <ele>62</ele>
        <time>2000-01-01T01:01:01.000Z</time>
      </trkpt>
      <trkpt lat="49.38436" lon="2.40089">
        <ele>58</ele>
        <time>2000-01-01T01:01:11.000Z</time>
      </trkpt>
      <trkpt lat="49.38417" lon="2.40083">
        <ele>58</ele>
        <time>2000-01-01T01:01:21.000Z</time>
      </trkpt>
      <trkpt lat="49.38393" lon="2.40067">
        <ele>56</ele>
        <time>2000-01-01T01:01:31.000Z</time>
      </trkpt>
      <trkpt lat="49.38382" lon="2.40067">
        <ele>61.6</ele>
        <time>2000-01-01T01:01:41.000Z</time>
      </trkpt>
      <trkpt lat="49.38376" lon="2.40069">
        <ele>61.7</ele>
        <time>2000-01-01T01:01:51.000Z</time>
      </trkpt>
      <trkpt lat="49.38375" lon="2.40062">
        <ele>55</ele>
        <time>2000-01-01T01:02:01.000Z</time>
      </trkpt>
      <trkpt lat="49.38358" lon="2.40052">
        <ele>55</ele>
        <time>2000-01-01T01:02:11.000Z</time>
      </trkpt>
      <trkpt lat="49.38343" lon="2.40096">
        <ele>58</ele>
        <time>2000-01-01T01:02:21.000Z</time>
      </trkpt>
      <trkpt lat="49.38328" lon="2.4014">
        <ele>58</ele>
        <time>2000-01-01T01:02:31.000Z</time>
      </trkpt>
      <trkpt lat="49.383" lon="2.40224">
        <ele>58</ele>
        <time>2000-01-01T01:02:41.000Z</time>
      </trkpt>
      <trkpt lat="49.38291" lon="2.4023">
        <ele>63.7</ele>
        <time>2000-01-01T01:02:51.000Z</time>
      </trkpt>
      <trkpt lat="49.3828" lon="2.40227">
        <ele>58</ele>
        <time>2000-01-01T01:03:01.000Z</time>
      </trkpt>
      <trkpt lat="49.38269" lon="2.40192">
        <ele>63</ele>
        <time>2000-01-01T01:03:11.000Z</time>
      </trkpt>
      <trkpt lat="49.38253" lon="2.40142">
        <ele>65</ele>
        <time>2000-01-01T01:03:21.000Z</time>
      </trkpt>
      <trkpt lat="49.38246" lon="2.40128">
        <ele>64</ele>
        <time>2000-01-01T01:03:31.000Z</time>
      </trkpt>
      <trkpt lat="49.38172" lon="2.39996">
        <ele>67</ele>
        <time>2000-01-01T01:03:41.000Z</time>
      </trkpt>
      <trkpt lat="49.38162" lon="2.39983">
        <ele>65.3</ele>
        <time>2000-01-01T01:03:51.000Z</time>
      </trkpt>
      <trkpt lat="49.38027" lon="2.39912">
        <ele>76</ele>
        <time>2000-01-01T01:04:01.000Z</time>
      </trkpt>
      <trkpt lat="49.38023" lon="2.3991">
        <ele>78.3</ele>
        <time>2000-01-01T01:04:11.000Z</time>
      </trkpt>
      <trkpt lat="49.37983" lon="2.40068">
        <ele>78</ele>
        <time>2000-01-01T01:04:21.000Z</time>
      </trkpt>
      <trkpt lat="49.3797" lon="2.40053">
        <ele>80.1</ele>
        <time>2000-01-01T01:04:31.000Z</time>
      </trkpt>
      <trkpt lat="49.37944" lon="2.40018">
        <ele>81</ele>
        <time>2000-01-01T01:04:41.000Z</time>
      </trkpt>
      <trkpt lat="49.37921" lon="2.4001">
        <ele>83</ele>
        <time>2000-01-01T01:04:51.000Z</time>
      </trkpt>
      <trkpt lat="49.37888" lon="2.40015">
        <ele>85</ele>
        <time>2000-01-01T01:05:01.000Z</time>
      </trkpt>
      <trkpt lat="49.37856" lon="2.4002">
        <ele>85</ele>
        <time>2000-01-01T01:05:11.000Z</time>
      </trkpt>
      <trkpt lat="49.37797" lon="2.40029">
        <ele>95</ele>
        <time>2000-01-01T01:05:21.000Z</time>
      </trkpt>
      <trkpt lat="49.37771" lon="2.40023">
        <ele>95</ele>
        <time>2000-01-01T01:05:31.000Z</time>
      </trkpt>
      <trkpt lat="49.37785" lon="2.40067">
        <ele>98</ele>
        <time>2000-01-01T01:05:41.000Z</time>
      </trkpt>
      <trkpt lat="49.37799" lon="2.40112">
        <ele>95</ele>
        <time>2000-01-01T01:05:51.000Z</time>
      </trkpt>
      <trkpt lat="49.37825" lon="2.40193">
        <ele>107</ele>
        <time>2000-01-01T01:06:01.000Z</time>
      </trkpt>
      <trkpt lat="49.37817" lon="2.40206">
        <ele>91.5</ele>
        <time>2000-01-01T01:06:11.000Z</time>
      </trkpt>
      <trkpt lat="49.37677" lon="2.40231">
        <ele>109</ele>
        <time>2000-01-01T01:06:21.000Z</time>
      </trkpt>
      <trkpt lat="49.37673" lon="2.40255">
        <ele>103.3</ele>
        <time>2000-01-01T01:06:31.000Z</time>
      </trkpt>
      <trkpt lat="49.3768" lon="2.40269">
        <ele>112</ele>
        <time>2000-01-01T01:06:41.000Z</time>
      </trkpt>
      <trkpt lat="49.37693" lon="2.40275">
        <ele>101.2</ele>
        <time>2000-01-01T01:06:51.000Z</time>
      </trkpt>
      <trkpt lat="49.37661" lon="2.40401">
        <ele>111</ele>
        <time>2000-01-01T01:07:01.000Z</time>
      </trkpt>
      <trkpt lat="49.37636" lon="2.40384">
        <ele>111</ele>
        <time>2000-01-01T01:07:11.000Z</time>
      </trkpt>
      <trkpt lat="49.37591" lon="2.40356">
        <ele>116</ele>
        <time>2000-01-01T01:07:21.000Z</time>
      </trkpt>
      <trkpt lat="49.37564" lon="2.40356">
        <ele>124</ele>
        <time>2000-01-01T01:07:31.000Z</time>
      </trkpt>
      <trkpt lat="49.37541" lon="2.40408">
        <ele>130</ele>
        <time>2000-01-01T01:07:41.000Z</time>
      </trkpt>
      <trkpt lat="49.37526" lon="2.40414">
        <ele>123.4</ele>
        <time>2000-01-01T01:07:51.000Z</time>
      </trkpt>
      <trkpt lat="49.37502" lon="2.40459">
        <ele>130</ele>
        <time>2000-01-01T01:08:01.000Z</time>
      </trkpt>
      <trkpt lat="49.37487" lon="2.40483">
        <ele>129</ele>
        <time>2000-01-01T01:08:11.000Z</time>
      </trkpt>
      <trkpt lat="49.37481" lon="2.40484">
        <ele>125</ele>
        <time>2000-01-01T01:08:21.000Z</time>
      </trkpt>
      <trkpt lat="49.37476" lon="2.40481">
        <ele>126</ele>
        <time>2000-01-01T01:08:31.000Z</time>
      </trkpt>
      <trkpt lat="49.37482" lon="2.40459">
        <ele>129</ele>
        <time>2000-01-01T01:08:41.000Z</time>
      </trkpt>
      <trkpt lat="49.37482" lon="2.4041">
        <ele>130</ele>
        <time>2000-01-01T01:08:51.000Z</time>
      </trkpt>
      <trkpt lat="49.37478" lon="2.40377">
        <ele>136</ele>
        <time>2000-01-01T01:09:01.000Z</time>
      </trkpt>
      <trkpt lat="49.37474" lon="2.40342">
        <ele>136</ele>
        <time>2000-01-01T01:09:11.000Z</time>
      </trkpt>
      <trkpt lat="49.37466" lon="2.40301">
        <ele>138</ele>
        <time>2000-01-01T01:09:21.000Z</time>
      </trkpt>
      <trkpt lat="49.37453" lon="2.40226">
        <ele>155</ele>
        <time>2000-01-01T01:09:31.000Z</time>
      </trkpt>
      <trkpt lat="49.37443" lon="2.40192">
        <ele>157</ele>
        <time>2000-01-01T01:09:41.000Z</time>
      </trkpt>
      <trkpt lat="49.37431" lon="2.40152">
        <ele>163</ele>
        <time>2000-01-01T01:09:51.000Z</time>
      </trkpt>
      <trkpt lat="49.37436" lon="2.40111">
        <ele>163</ele>
        <time>2000-01-01T01:10:01.000Z</time>
      </trkpt>
      <trkpt lat="49.37445" lon="2.40046">
        <ele>163</ele>
        <time>2000-01-01T01:10:11.000Z</time>
      </trkpt>
      <trkpt lat="49.37445" lon="2.40003">
        <ele>161</ele>
        <time>2000-01-01T01:10:21.000Z</time>
      </trkpt>
      <trkpt lat="49.37444" lon="2.39926">
        <ele>156</ele>
        <time>2000-01-01T01:10:31.000Z</time>
      </trkpt>
      <trkpt lat="49.37439" lon="2.39883">
        <ele>156</ele>
        <time>2000-01-01T01:10:41.000Z</time>
      </trkpt>
      <trkpt lat="49.37429" lon="2.39803">
        <ele>157</ele>
        <time>2000-01-01T01:10:51.000Z</time>
      </trkpt>
      <trkpt lat="49.37417" lon="2.39763">
        <ele>158</ele>
        <time>2000-01-01T01:11:01.000Z</time>
      </trkpt>
      <trkpt lat="49.37392" lon="2.39682">
        <ele>157</ele>
        <time>2000-01-01T01:11:11.000Z</time>
      </trkpt>
      <trkpt lat="49.37359" lon="2.3969">
        <ele>156</ele>
        <time>2000-01-01T01:11:21.000Z</time>
      </trkpt>
      <trkpt lat="49.37326" lon="2.39697">
        <ele>148</ele>
        <time>2000-01-01T01:11:31.000Z</time>
      </trkpt>
      <trkpt lat="49.37293" lon="2.39705">
        <ele>149</ele>
        <time>2000-01-01T01:11:41.000Z</time>
      </trkpt>
      <trkpt lat="49.3725" lon="2.39715">
        <ele>148</ele>
        <time>2000-01-01T01:11:51.000Z</time>
      </trkpt>
      <trkpt lat="49.3724" lon="2.39658">
        <ele>148</ele>
        <time>2000-01-01T01:12:01.000Z</time>
      </trkpt>
      <trkpt lat="49.3723" lon="2.39601">
        <ele>149</ele>
        <time>2000-01-01T01:12:11.000Z</time>
      </trkpt>
      <trkpt lat="49.3722" lon="2.39543">
        <ele>152</ele>
        <time>2000-01-01T01:12:21.000Z</time>
      </trkpt>
      <trkpt lat="49.3721" lon="2.39486">
        <ele>151</ele>
        <time>2000-01-01T01:12:31.000Z</time>
      </trkpt>
      <trkpt lat="49.372" lon="2.39429">
        <ele>151</ele>
        <time>2000-01-01T01:12:41.000Z</time>
      </trkpt>
      <trkpt lat="49.3719" lon="2.39372">
        <ele>151</ele>
        <time>2000-01-01T01:12:51.000Z</time>
      </trkpt>
      <trkpt lat="49.3718" lon="2.39315">
        <ele>155</ele>
        <time>2000-01-01T01:13:01.000Z</time>
      </trkpt>
      <trkpt lat="49.37167" lon="2.39241">
        <ele>164</ele>
        <time>2000-01-01T01:13:11.000Z</time>
      </trkpt>
      <trkpt lat="49.37147" lon="2.39193">
        <ele>166</ele>
        <time>2000-01-01T01:13:21.000Z</time>
      </trkpt>
      <trkpt lat="49.37126" lon="2.39144">
        <ele>166</ele>
        <time>2000-01-01T01:13:31.000Z</time>
      </trkpt>
      <trkpt lat="49.37106" lon="2.39096">
        <ele>166</ele>
        <time>2000-01-01T01:13:41.000Z</time>
      </trkpt>
      <trkpt lat="49.37085" lon="2.39047">
        <ele>166</ele>
        <time>2000-01-01T01:13:51.000Z</time>
      </trkpt>
      <trkpt lat="49.37064" lon="2.38999">
        <ele>166</ele>
        <time>2000-01-01T01:14:01.000Z</time>
      </trkpt>
      <trkpt lat="49.37044" lon="2.3895">
        <ele>164</ele>
        <time>2000-01-01T01:14:11.000Z</time>
      </trkpt>
      <trkpt lat="49.37021" lon="2.38898">
        <ele>163</ele>
        <time>2000-01-01T01:14:21.000Z</time>
      </trkpt>
      <trkpt lat="49.37009" lon="2.38868">
        <ele>162</ele>
        <time>2000-01-01T01:14:31.000Z</time>
      </trkpt>
      <trkpt lat="49.36996" lon="2.38835">
        <ele>160</ele>
        <time>2000-01-01T01:14:41.000Z</time>
      </trkpt>
      <trkpt lat="49.37031" lon="2.38808">
        <ele>160</ele>
        <time>2000-01-01T01:14:51.000Z</time>
      </trkpt>
      <trkpt lat="49.37065" lon="2.3878">
        <ele>152</ele>
        <time>2000-01-01T01:15:01.000Z</time>
      </trkpt>
      <trkpt lat="49.37099" lon="2.38753">
        <ele>141</ele>
        <time>2000-01-01T01:15:11.000Z</time>
      </trkpt>
      <trkpt lat="49.37133" lon="2.38725">
        <ele>141</ele>
        <time>2000-01-01T01:15:21.000Z</time>
      </trkpt>
      <trkpt lat="49.37168" lon="2.38698">
        <ele>144</ele>
        <time>2000-01-01T01:15:31.000Z</time>
      </trkpt>
      <trkpt lat="49.37202" lon="2.3867">
        <ele>148</ele>
        <time>2000-01-01T01:15:41.000Z</time>
      </trkpt>
      <trkpt lat="49.37236" lon="2.38642">
        <ele>152</ele>
        <time>2000-01-01T01:15:51.000Z</time>
      </trkpt>
      <trkpt lat="49.37286" lon="2.38603">
        <ele>155</ele>
        <time>2000-01-01T01:16:01.000Z</time>
      </trkpt>
      <trkpt lat="49.37283" lon="2.38553">
        <ele>156</ele>
        <time>2000-01-01T01:16:11.000Z</time>
      </trkpt>
      <trkpt lat="49.37281" lon="2.38504">
        <ele>155</ele>
        <time>2000-01-01T01:16:21.000Z</time>
      </trkpt>
      <trkpt lat="49.37278" lon="2.38419">
        <ele>155</ele>
        <time>2000-01-01T01:16:31.000Z</time>
      </trkpt>
      <trkpt lat="49.37293" lon="2.38386">
        <ele>155</ele>
        <time>2000-01-01T01:16:41.000Z</time>
      </trkpt>
      <trkpt lat="49.37316" lon="2.38337">
        <ele>155</ele>
        <time>2000-01-01T01:16:51.000Z</time>
      </trkpt>
      <trkpt lat="49.37338" lon="2.38288">
        <ele>155</ele>
        <time>2000-01-01T01:17:01.000Z</time>
      </trkpt>
      <trkpt lat="49.37366" lon="2.38273">
        <ele>154</ele>
        <time>2000-01-01T01:17:11.000Z</time>
      </trkpt>
      <trkpt lat="49.37395" lon="2.38257">
        <ele>149</ele>
        <time>2000-01-01T01:17:21.000Z</time>
      </trkpt>
      <trkpt lat="49.37428" lon="2.38239">
        <ele>148</ele>
        <time>2000-01-01T01:17:31.000Z</time>
      </trkpt>
      <trkpt lat="49.37458" lon="2.3824">
        <ele>149</ele>
        <time>2000-01-01T01:17:41.000Z</time>
      </trkpt>
      <trkpt lat="49.37489" lon="2.38241">
        <ele>151</ele>
        <time>2000-01-01T01:17:51.000Z</time>
      </trkpt>
      <trkpt lat="49.37527" lon="2.38242">
        <ele>149</ele>
        <time>2000-01-01T01:18:01.000Z</time>
      </trkpt>
      <trkpt lat="49.3753" lon="2.382">
        <ele>147</ele>
        <time>2000-01-01T01:18:11.000Z</time>
      </trkpt>
      <trkpt lat="49.37536" lon="2.3813">
        <ele>143</ele>
        <time>2000-01-01T01:18:21.000Z</time>
      </trkpt>
      <trkpt lat="49.37551" lon="2.38092">
        <ele>143</ele>
        <time>2000-01-01T01:18:31.000Z</time>
      </trkpt>
      <trkpt lat="49.3758" lon="2.38018">
        <ele>139</ele>
        <time>2000-01-01T01:18:41.000Z</time>
      </trkpt>
      <trkpt lat="49.37591" lon="2.37983">
        <ele>136</ele>
        <time>2000-01-01T01:18:51.000Z</time>
      </trkpt>
      <trkpt lat="49.37606" lon="2.37935">
        <ele>126</ele>
        <time>2000-01-01T01:19:01.000Z</time>
      </trkpt>
      <trkpt lat="49.37634" lon="2.37917">
        <ele>122</ele>
        <time>2000-01-01T01:19:11.000Z</time>
      </trkpt>
      <trkpt lat="49.37661" lon="2.37899">
        <ele>121</ele>
        <time>2000-01-01T01:19:21.000Z</time>
      </trkpt>
      <trkpt lat="49.37693" lon="2.37878">
        <ele>121</ele>
        <time>2000-01-01T01:19:31.000Z</time>
      </trkpt>
      <trkpt lat="49.37715" lon="2.37887">
        <ele>121</ele>
        <time>2000-01-01T01:19:41.000Z</time>
      </trkpt>
      <trkpt lat="49.37741" lon="2.37897">
        <ele>132</ele>
        <time>2000-01-01T01:19:51.000Z</time>
      </trkpt>
      <trkpt lat="49.37765" lon="2.37904">
        <ele>132</ele>
        <time>2000-01-01T01:20:01.000Z</time>
      </trkpt>
      <trkpt lat="49.37799" lon="2.37914">
        <ele>134</ele>
        <time>2000-01-01T01:20:11.000Z</time>
      </trkpt>
      <trkpt lat="49.37822" lon="2.37916">
        <ele>136</ele>
        <time>2000-01-01T01:20:21.000Z</time>
      </trkpt>
      <trkpt lat="49.37847" lon="2.37918">
        <ele>136</ele>
        <time>2000-01-01T01:20:31.000Z</time>
      </trkpt>
      <trkpt lat="49.37882" lon="2.37909">
        <ele>136</ele>
        <time>2000-01-01T01:20:41.000Z</time>
      </trkpt>
      <trkpt lat="49.37917" lon="2.379">
        <ele>135</ele>
        <time>2000-01-01T01:20:51.000Z</time>
      </trkpt>
      <trkpt lat="49.37952" lon="2.3789">
        <ele>135</ele>
        <time>2000-01-01T01:21:01.000Z</time>
      </trkpt>
      <trkpt lat="49.37988" lon="2.37881">
        <ele>135</ele>
        <time>2000-01-01T01:21:11.000Z</time>
      </trkpt>
      <trkpt lat="49.38035" lon="2.37869">
        <ele>135</ele>
        <time>2000-01-01T01:21:21.000Z</time>
      </trkpt>
      <trkpt lat="49.38057" lon="2.37901">
        <ele>142</ele>
        <time>2000-01-01T01:21:31.000Z</time>
      </trkpt>
      <trkpt lat="49.38079" lon="2.37934">
        <ele>139</ele>
        <time>2000-01-01T01:21:41.000Z</time>
      </trkpt>
      <trkpt lat="49.38105" lon="2.37974">
        <ele>136</ele>
        <time>2000-01-01T01:21:51.000Z</time>
      </trkpt>
      <trkpt lat="49.38105" lon="2.38009">
        <ele>132</ele>
        <time>2000-01-01T01:22:01.000Z</time>
      </trkpt>
      <trkpt lat="49.38105" lon="2.38049">
        <ele>131</ele>
        <time>2000-01-01T01:22:11.000Z</time>
      </trkpt>
      <trkpt lat="49.38124" lon="2.38085">
        <ele>131</ele>
        <time>2000-01-01T01:22:21.000Z</time>
      </trkpt>
      <trkpt lat="49.38143" lon="2.38121">
        <ele>131</ele>
        <time>2000-01-01T01:22:31.000Z</time>
      </trkpt>
      <trkpt lat="49.38165" lon="2.38163">
        <ele>118</ele>
        <time>2000-01-01T01:22:41.000Z</time>
      </trkpt>
      <trkpt lat="49.38196" lon="2.38191">
        <ele>113</ele>
        <time>2000-01-01T01:22:51.000Z</time>
      </trkpt>
      <trkpt lat="49.38212" lon="2.38227">
        <ele>112</ele>
        <time>2000-01-01T01:23:01.000Z</time>
      </trkpt>
      <trkpt lat="49.38243" lon="2.38299">
        <ele>108</ele>
        <time>2000-01-01T01:23:11.000Z</time>
      </trkpt>
      <trkpt lat="49.38258" lon="2.38339">
        <ele>105</ele>
        <time>2000-01-01T01:23:21.000Z</time>
      </trkpt>
      <trkpt lat="49.38274" lon="2.3838">
        <ele>94</ele>
        <time>2000-01-01T01:23:31.000Z</time>
      </trkpt>
      <trkpt lat="49.38293" lon="2.38431">
        <ele>90</ele>
        <time>2000-01-01T01:23:41.000Z</time>
      </trkpt>
      <trkpt lat="49.38264" lon="2.38474">
        <ele>86</ele>
        <time>2000-01-01T01:23:51.000Z</time>
      </trkpt>
      <trkpt lat="49.38256" lon="2.38471">
        <ele>89.7</ele>
        <time>2000-01-01T01:24:01.000Z</time>
      </trkpt>
      <trkpt lat="49.38247" lon="2.38464">
        <ele>86</ele>
        <time>2000-01-01T01:24:11.000Z</time>
      </trkpt>
      <trkpt lat="49.38219" lon="2.38482">
        <ele>88</ele>
        <time>2000-01-01T01:24:21.000Z</time>
      </trkpt>
      <trkpt lat="49.38232" lon="2.38544">
        <ele>88</ele>
        <time>2000-01-01T01:24:31.000Z</time>
      </trkpt>
      <trkpt lat="49.38243" lon="2.38542">
        <ele>86.9</ele>
        <time>2000-01-01T01:24:41.000Z</time>
      </trkpt>
      <trkpt lat="49.38254" lon="2.3858">
        <ele>87</ele>
        <time>2000-01-01T01:24:51.000Z</time>
      </trkpt>
      <trkpt lat="49.38279" lon="2.38633">
        <ele>87</ele>
        <time>2000-01-01T01:25:01.000Z</time>
      </trkpt>
      <trkpt lat="49.38289" lon="2.38669">
        <ele>85</ele>
        <time>2000-01-01T01:25:11.000Z</time>
      </trkpt>
      <trkpt lat="49.38301" lon="2.38716">
        <ele>72</ele>
        <time>2000-01-01T01:25:21.000Z</time>
      </trkpt>
      <trkpt lat="49.38327" lon="2.38748">
        <ele>68</ele>
        <time>2000-01-01T01:25:31.000Z</time>
      </trkpt>
      <trkpt lat="49.38364" lon="2.38762">
        <ele>65</ele>
        <time>2000-01-01T01:25:41.000Z</time>
      </trkpt>
      <trkpt lat="49.38373" lon="2.38763">
        <ele>68.1</ele>
        <time>2000-01-01T01:25:51.000Z</time>
      </trkpt>
      <trkpt lat="49.38538" lon="2.3889">
        <ele>62</ele>
        <time>2000-01-01T01:26:01.000Z</time>
      </trkpt>
      <trkpt lat="49.38522" lon="2.38932">
        <ele>62</ele>
        <time>2000-01-01T01:26:11.000Z</time>
      </trkpt>
      <trkpt lat="49.38505" lon="2.38975">
        <ele>62</ele>
        <time>2000-01-01T01:26:21.000Z</time>
      </trkpt>
      <trkpt lat="49.38478" lon="2.39049">
        <ele>61</ele>
        <time>2000-01-01T01:26:31.000Z</time>
      </trkpt>
      <trkpt lat="49.38462" lon="2.3909">
        <ele>60</ele>
        <time>2000-01-01T01:26:41.000Z</time>
      </trkpt>
      <trkpt lat="49.38438" lon="2.39128">
        <ele>59</ele>
        <time>2000-01-01T01:26:51.000Z</time>
      </trkpt>
      <trkpt lat="49.38415" lon="2.39166">
        <ele>59</ele>
        <time>2000-01-01T01:27:01.000Z</time>
      </trkpt>
      <trkpt lat="49.38391" lon="2.39204">
        <ele>59</ele>
        <time>2000-01-01T01:27:11.000Z</time>
      </trkpt>
      <trkpt lat="49.38357" lon="2.39259">
        <ele>59</ele>
        <time>2000-01-01T01:27:21.000Z</time>
      </trkpt>
      <trkpt lat="49.38344" lon="2.39291">
        <ele>61</ele>
        <time>2000-01-01T01:27:31.000Z</time>
      </trkpt>
      <trkpt lat="49.38334" lon="2.3934">
        <ele>61</ele>
        <time>2000-01-01T01:27:41.000Z</time>
      </trkpt>
      <trkpt lat="49.38325" lon="2.3939">
        <ele>58</ele>
        <time>2000-01-01T01:27:51.000Z</time>
      </trkpt>
      <trkpt lat="49.38316" lon="2.39439">
        <ele>57</ele>
        <time>2000-01-01T01:28:01.000Z</time>
      </trkpt>
      <trkpt lat="49.38305" lon="2.39499">
        <ele>57</ele>
        <time>2000-01-01T01:28:11.000Z</time>
      </trkpt>
      <trkpt lat="49.383" lon="2.39548">
        <ele>53</ele>
        <time>2000-01-01T01:28:21.000Z</time>
      </trkpt>
      <trkpt lat="49.38294" lon="2.39598">
        <ele>53</ele>
        <time>2000-01-01T01:28:31.000Z</time>
      </trkpt>
      <trkpt lat="49.38284" lon="2.39696">
        <ele>52</ele>
        <time>2000-01-01T01:28:41.000Z</time>
      </trkpt>
      <trkpt lat="49.3828" lon="2.39743">
        <ele>52</ele>
        <time>2000-01-01T01:28:51.000Z</time>
      </trkpt>
      <trkpt lat="49.38276" lon="2.39791">
        <ele>54</ele>
        <time>2000-01-01T01:29:01.000Z</time>
      </trkpt>
      <trkpt lat="49.38271" lon="2.39859">
        <ele>53</ele>
        <time>2000-01-01T01:29:11.000Z</time>
      </trkpt>
      <trkpt lat="49.38271" lon="2.39868">
        <ele>62</ele>
        <time>2000-01-01T01:29:21.000Z</time>
      </trkpt>
      <trkpt lat="49.38394" lon="2.39901">
        <ele>53</ele>
        <time>2000-01-01T01:29:31.000Z</time>
      </trkpt>
      <trkpt lat="49.38407" lon="2.39913">
        <ele>60.7</ele>
        <time>2000-01-01T01:29:41.000Z</time>
      </trkpt>
      <trkpt lat="49.38418" lon="2.39929">
        <ele>51</ele>
        <time>2000-01-01T01:29:51.000Z</time>
      </trkpt>
      <trkpt lat="49.38404" lon="2.39969">
        <ele>51</ele>
        <time>2000-01-01T01:30:01.000Z</time>
      </trkpt>
      <trkpt lat="49.3839" lon="2.4001">
        <ele>51</ele>
        <time>2000-01-01T01:30:11.000Z</time>
      </trkpt>
      <trkpt lat="49.38375" lon="2.40055">
        <ele>50</ele>
        <time>2000-01-01T01:30:21.000Z</time>
      </trkpt>
      <trkpt lat="49.38383" lon="2.40061">
        <ele>61.4</ele>
        <time>2000-01-01T01:30:31.000Z</time>
      </trkpt>
      <trkpt lat="49.384" lon="2.40063">
        <ele>50</ele>
        <time>2000-01-01T01:30:41.000Z</time>
      </trkpt>
      <trkpt lat="49.38413" lon="2.40054">
        <ele>61.8</ele>
        <time>2000-01-01T01:30:51.000Z</time>
      </trkpt>
      <trkpt lat="49.38444" lon="2.40001">
        <ele>54</ele>
        <time>2000-01-01T01:31:01.000Z</time>
      </trkpt>
      <trkpt lat="49.38479" lon="2.40005">
        <ele>58</ele>
        <time>2000-01-01T01:31:11.000Z</time>
      </trkpt>
      <trkpt lat="49.3848" lon="2.39984">
        <ele>61.6</ele>
        <time>2000-01-01T01:31:21.000Z</time>
      </trkpt>
      <trkpt lat="49.38497" lon="2.39981">
        <ele>58</ele>
        <time>2000-01-01T01:31:31.000Z</time>
      </trkpt>
      <trkpt lat="49.38501" lon="2.39949">
        <ele>58</ele>
        <time>2000-01-01T01:31:41.000Z</time>
      </trkpt>
      <trkpt lat="49.38513" lon="2.39946">
        <ele>61</ele>
        <time>2000-01-01T01:31:51.000Z</time>
      </trkpt>
      <trkpt lat="49.38553" lon="2.39886">
        <ele>66</ele>
        <time>2000-01-01T01:32:01.000Z</time>
      </trkpt>
      <trkpt lat="49.38569" lon="2.39852">
        <ele>69</ele>
        <time>2000-01-01T01:32:11.000Z</time>
      </trkpt>
      <trkpt lat="49.38586" lon="2.39828">
        <ele>70</ele>
        <time>2000-01-01T01:32:21.000Z</time>
      </trkpt>
      <trkpt lat="49.38598" lon="2.39818">
        <ele>61.2</ele>
        <time>2000-01-01T01:32:31.000Z</time>
      </trkpt>
      <trkpt lat="49.38625" lon="2.3984">
        <ele>70</ele>
        <time>2000-01-01T01:32:41.000Z</time>
      </trkpt>
      <trkpt lat="49.38626" lon="2.39807">
        <ele>69</ele>
        <time>2000-01-01T01:32:51.000Z</time>
      </trkpt>
      <trkpt lat="49.38643" lon="2.39819">
        <ele>69</ele>
        <time>2000-01-01T01:33:01.000Z</time>
      </trkpt>
      <trkpt lat="49.38659" lon="2.39809">
        <ele>61</ele>
        <time>2000-01-01T01:33:11.000Z</time>
      </trkpt>
      <trkpt lat="49.38675" lon="2.39809">
        <ele>63</ele>
        <time>2000-01-01T01:33:21.000Z</time>
      </trkpt>
      <trkpt lat="49.38684" lon="2.39808">
        <ele>59.8</ele>
        <time>2000-01-01T01:33:31.000Z</time>
      </trkpt>
      <trkpt lat="49.38681" lon="2.39845">
        <ele>61</ele>
        <time>2000-01-01T01:33:41.000Z</time>
      </trkpt>
      <trkpt lat="49.38695" lon="2.39863">
        <ele>58</ele>
        <time>2000-01-01T01:33:51.000Z</time>
      </trkpt>
      <trkpt lat="49.38705" lon="2.39868">
        <ele>59</ele>
        <time>2000-01-01T01:34:01.000Z</time>
      </trkpt>
      <trkpt lat="49.38714" lon="2.3987">
        <ele>56</ele>
        <time>2000-01-01T01:34:11.000Z</time>
      </trkpt>
      <trkpt lat="49.38715" lon="2.39897">
        <ele>56</ele>
        <time>2000-01-01T01:34:21.000Z</time>
      </trkpt>
    </trkseg>
  </trk>
</gpx>